Terminal Aerodrome Forecast
Issued by NWS

Home | Current Version | Previous Version | Text Only | Print | Product List | Glossary On
Versions: 1 2 3 4 5 6 7 8 9 10 11 12 13 14 15 16 17 18 19 20 21 22 23 24 25 26 27 28 29 30 31
000
FTUS42 KGSP 212300
TAFHKY
TAF
KHKY 212337Z 2200/2224 25003KT P6SM VCTS BKN060CB
      TEMPO 2200/2201 VRB10KT 6SM -TSRA BR SCT030CB BKN060
     FM220200 00000KT P6SM SCT100 BKN250
     FM221600 27006KT P6SM SCT070
     FM222000 27006KT P6SM BKN070 PROB30 2221/2224 4SM TSRA
      BKN040CB=

USA.gov is the U.S. government's official web portal to all federal, state and local government web resources and services.